KSKA Airport Information

Runway Information
Runway 05 Length 13901 ft width 200 ft
Elevation 2461 ft Threshold 0 ft Heading 67
Runway 23 Length 13901 ft Width 200 ft
Elevation 2414 ft Threshold 0 ft Heading 247
Airport Frequencies
Type A/D Name SPOKANE AP Frequency 123.75 MHZ
Type ATIS Name ATIS Frequency 25.762 MHZ
Type GND Name GND Frequency 121.85 MHZ
Type OPS Name WASHINGTON Frequency 29.37 MHZ
Type PMSV Name PMSV METRO Frequency 23.48 MHZ
Type POST Name COMD POST Frequency 31.1 MHZ
Type PTD Name PTD Frequency 130 MHZ
Type TWR Name TWR Frequency 126.2 MHZ
Airport Navaids
Type TACAN Name Fairchild Frequency 111400 KHZ
Airport Weather Information & NOTAM
ADDS - METARS form results

(0149 UTC 19 January 2018)
 
METAR text: KSKA 190058Z AUTO 21006KT 10SM OVC009 03/03 A2978 RMK AO2 SLP100 T00250025 $
Conditions at: KSKA (FAIRCHILD AFB , WA, US) observed 0058 UTC 19 January 2018
Temperature: 2.5°C (36°F)
Dewpoint: 2.5°C (36°F) [RH = 100%]
Pressure (altimeter): 29.78 inches Hg (1008.5 mb)
[Sea-level pressure: 1010.0 mb]
Winds: from the SSW (210 degrees) at 7 MPH (6 knots; 3.1 m/s)
Visibility: 10 or more miles (16+ km)
Ceiling: 900 feet AGL
Clouds: overcast cloud deck at 900 feet AGL
Weather:
SOME DATA ABOVE MAY BE INACCURATE!!!
"$" is an indication the sensor requires maintenance